createdAt,value
2023-02-25T00:06:33.124Z,6.39
2023-02-25T00:07:33.031Z,6.39
2023-02-25T00:08:33.116Z,6.35
2023-02-25T00:09:33.070Z,6.36
2023-02-25T00:10:33.149Z,6.32
2023-02-25T00:11:33.158Z,6.32
2023-02-25T00:12:33.232Z,6.13
2023-02-25T00:13:33.218Z,6.19
2023-02-25T00:14:33.241Z,6.19
2023-02-25T00:15:33.232Z,6.32
2023-02-25T00:16:33.323Z,6.20
2023-02-25T00:17:33.264Z,6.28
2023-02-25T00:18:33.283Z,6.13
2023-02-25T00:19:33.262Z,5.97
2023-02-25T00:20:33.372Z,5.88
2023-02-25T00:21:33.512Z,6.16
2023-02-25T00:22:33.402Z,6.32
2023-02-25T00:23:33.463Z,6.39
2023-02-25T00:24:33.471Z,6.36
2023-02-25T00:25:33.454Z,6.15
2023-02-25T00:26:33.504Z,6.19
2023-02-25T00:27:33.576Z,6.10
2023-02-25T00:28:33.657Z,6.22
2023-02-25T00:29:33.663Z,6.35
2023-02-25T00:30:33.730Z,6.38
2023-02-25T00:31:33.763Z,6.28
2023-02-25T00:32:33.768Z,6.36
2023-02-25T00:33:33.763Z,6.64
2023-02-25T00:34:33.811Z,6.56
2023-02-25T00:35:33.874Z,6.26
2023-02-25T00:36:33.926Z,6.22
2023-02-25T00:37:33.984Z,6.28
2023-02-25T00:38:34.035Z,6.29
2023-02-25T00:39:34.096Z,6.35
2023-02-25T00:40:34.176Z,6.13
2023-02-25T00:41:34.185Z,6.15
2023-02-25T00:42:34.197Z,6.09
2023-02-25T00:43:34.257Z,6.12
2023-02-25T00:44:34.329Z,6.15
2023-02-25T00:45:34.348Z,6.26
2023-02-25T00:46:34.502Z,6.44
2023-02-25T00:47:34.361Z,6.36
2023-02-25T00:48:34.389Z,6.15
2023-02-25T00:49:34.408Z,6.25
2023-02-25T00:50:34.462Z,6.28
2023-02-25T00:51:34.558Z,6.20
2023-02-25T00:52:34.541Z,6.15
2023-02-25T00:53:34.610Z,6.12
2023-02-25T00:54:34.606Z,6.19
2023-02-25T00:55:34.657Z,6.19
2023-02-25T00:56:34.685Z,6.20
2023-02-25T00:57:34.710Z,6.10
2023-02-25T00:58:34.730Z,6.20
2023-02-25T00:59:34.746Z,6.28
2023-02-25T01:00:46.516Z,6.22
2023-02-25T01:01:34.879Z,6.36
2023-02-25T01:02:34.942Z,6.22
2023-02-25T01:03:34.937Z,6.22
2023-02-25T01:04:34.990Z,6.31
2023-02-25T01:05:35.031Z,6.50
2023-02-25T01:06:35.112Z,6.46
2023-02-25T01:07:35.132Z,6.34
2023-02-25T01:08:35.191Z,6.32
2023-02-25T01:09:35.253Z,6.41
2023-02-25T01:10:35.251Z,6.46
2023-02-25T01:11:35.263Z,6.47
2023-02-25T01:12:35.266Z,6.25
2023-02-25T01:13:35.333Z,6.41
2023-02-25T01:14:35.355Z,6.43
2023-02-25T01:15:35.454Z,6.46
2023-02-25T01:16:35.436Z,6.47
2023-02-25T01:17:35.446Z,6.35
2023-02-25T01:18:35.370Z,6.09
2023-02-25T01:19:35.363Z,5.98
2023-02-25T01:20:35.396Z,6.10
2023-02-25T01:21:35.434Z,6.26
2023-02-25T01:22:35.451Z,6.25
2023-02-25T01:23:35.521Z,6.09
2023-02-25T01:24:35.600Z,6.17
2023-02-25T01:25:35.669Z,6.20
2023-02-25T01:26:35.639Z,6.16
2023-02-25T01:27:35.696Z,6.19
2023-02-25T01:28:35.744Z,6.39
2023-02-25T01:29:35.836Z,6.34
2023-02-25T01:30:35.902Z,6.26
2023-02-25T01:31:36.008Z,6.35
2023-02-25T01:32:36.007Z,6.26
2023-02-25T01:33:35.915Z,6.17
2023-02-25T01:34:35.909Z,6.28
2023-02-25T01:35:35.906Z,6.13
2023-02-25T01:36:35.943Z,6.12
2023-02-25T01:37:36.013Z,6.35
2023-02-25T01:38:36.029Z,6.15
2023-02-25T01:39:36.091Z,6.10
2023-02-25T01:40:36.126Z,6.12
2023-02-25T01:41:36.196Z,6.10
2023-02-25T01:42:36.214Z,6.12
2023-02-25T01:43:36.243Z,6.12
2023-02-25T01:44:36.270Z,6.17
2023-02-25T01:45:36.308Z,6.20
2023-02-25T01:46:36.399Z,6.38
2023-02-25T01:47:36.388Z,6.59
2023-02-25T01:48:36.427Z,6.26
2023-02-25T01:49:36.506Z,6.26
2023-02-25T01:50:36.462Z,6.26
2023-02-25T01:51:36.538Z,6.28
2023-02-25T01:52:36.581Z,6.31
2023-02-25T01:53:36.630Z,6.26
2023-02-25T01:54:36.660Z,6.07
2023-02-25T01:55:36.706Z,5.95
2023-02-25T01:56:36.761Z,6.10
2023-02-25T01:57:36.820Z,6.15
2023-02-25T01:58:36.884Z,6.19
2023-02-25T01:59:36.974Z,6.25
2023-02-25T02:00:37.009Z,6.43
2023-02-25T02:01:37.012Z,6.57
2023-02-25T02:02:37.092Z,6.52
2023-02-25T02:03:37.126Z,6.46
2023-02-25T02:04:37.199Z,6.15
2023-02-25T02:05:37.174Z,6.13
2023-02-25T02:06:37.255Z,6.25
2023-02-25T02:07:40.663Z,6.10
2023-02-25T02:08:37.255Z,6.09
2023-02-25T02:09:37.335Z,6.32
2023-02-25T02:10:37.375Z,6.50
2023-02-25T02:11:37.412Z,6.44
2023-02-25T02:12:37.469Z,6.31
2023-02-25T02:13:37.505Z,6.17
2023-02-25T02:14:37.584Z,6.26
2023-02-25T02:15:37.598Z,6.41
2023-02-25T02:16:37.675Z,6.26
2023-02-25T02:17:37.697Z,6.20
2023-02-25T02:18:37.715Z,6.12
2023-02-25T02:19:37.727Z,6.09
2023-02-25T02:20:37.725Z,6.28
2023-02-25T02:21:37.747Z,6.43
2023-02-25T02:22:37.769Z,6.53
2023-02-25T02:23:37.756Z,6.20
2023-02-25T02:24:37.795Z,6.32
2023-02-25T02:25:37.829Z,6.35
2023-02-25T02:26:37.861Z,6.39
2023-02-25T02:27:37.929Z,6.26
2023-02-25T02:28:37.909Z,6.19
2023-02-25T02:29:37.959Z,6.29
2023-02-25T02:30:38.024Z,6.28
2023-02-25T02:31:38.133Z,6.28
2023-02-25T02:32:38.081Z,6.12
2023-02-25T02:33:38.028Z,6.09
2023-02-25T02:34:38.099Z,6.12
2023-02-25T02:35:38.070Z,6.05
2023-02-25T02:36:38.146Z,6.26
2023-02-25T02:37:38.159Z,6.28
2023-02-25T02:38:38.168Z,6.34
2023-02-25T02:39:38.170Z,6.26
2023-02-25T02:40:38.196Z,6.28
2023-02-25T02:41:38.240Z,6.17
2023-02-25T02:42:38.290Z,6.17
2023-02-25T02:43:38.300Z,6.28
2023-02-25T02:44:38.339Z,6.13
2023-02-25T02:45:38.444Z,6.19
2023-02-25T02:46:38.420Z,6.12
2023-02-25T02:47:38.459Z,6.29
2023-02-25T02:48:38.509Z,6.38
2023-02-25T02:49:38.554Z,6.44
2023-02-25T02:50:38.608Z,6.57
2023-02-25T02:51:38.806Z,6.46
2023-02-25T02:52:38.681Z,6.60
2023-02-25T02:53:38.675Z,6.62
2023-02-25T02:54:38.704Z,6.59
2023-02-25T02:55:38.688Z,6.52
2023-02-25T02:56:38.697Z,6.56
2023-02-25T02:57:38.757Z,6.56
2023-02-25T02:58:38.799Z,6.52
2023-02-25T02:59:38.866Z,6.39
2023-02-25T03:00:38.834Z,6.54
2023-02-25T03:01:38.906Z,6.47
2023-02-25T03:02:38.940Z,6.50
2023-02-25T03:03:39.033Z,6.54
2023-02-25T03:04:39.030Z,6.43
2023-02-25T03:05:39.086Z,6.38
2023-02-25T03:06:39.177Z,6.38
2023-02-25T03:07:39.197Z,6.43
2023-02-25T03:08:39.267Z,6.22
2023-02-25T03:09:39.271Z,6.44
2023-02-25T03:10:39.317Z,6.34
2023-02-25T03:11:39.324Z,6.38
2023-02-25T03:12:39.399Z,6.26
2023-02-25T03:13:39.392Z,6.28
2023-02-25T03:14:39.398Z,6.46
2023-02-25T03:15:39.465Z,6.57
2023-02-25T03:16:39.604Z,6.65
2023-02-25T03:17:39.537Z,6.39
2023-02-25T03:18:39.560Z,6.41
2023-02-25T03:19:39.563Z,6.53
2023-02-25T03:20:39.571Z,6.46
2023-02-25T03:21:39.636Z,6.47
2023-02-25T03:22:39.655Z,6.34
2023-02-25T03:23:39.672Z,6.32
2023-02-25T03:24:39.705Z,6.38
2023-02-25T03:25:39.705Z,6.50
2023-02-25T03:26:39.767Z,6.56
2023-02-25T03:27:39.797Z,6.39
2023-02-25T03:28:39.827Z,6.39
2023-02-25T03:29:39.848Z,6.54
2023-02-25T03:30:39.930Z,6.46
2023-02-25T03:31:40.078Z,6.35
2023-02-25T03:32:39.962Z,6.32
2023-02-25T03:33:39.920Z,6.29
2023-02-25T03:34:39.954Z,6.25
2023-02-25T03:35:39.998Z,6.49
2023-02-25T03:36:40.003Z,6.56
2023-02-25T03:37:40.031Z,6.47
2023-02-25T03:38:40.078Z,6.44
2023-02-25T03:39:40.084Z,6.39
2023-02-25T03:40:40.083Z,6.59
2023-02-25T03:41:40.135Z,6.65
2023-02-25T03:42:40.148Z,6.57
2023-02-25T03:43:40.204Z,6.46
2023-02-25T03:44:40.228Z,6.46
2023-02-25T03:45:40.378Z,6.46
2023-02-25T03:46:40.334Z,6.50
2023-02-25T03:47:40.327Z,6.60
2023-02-25T03:48:40.365Z,6.28
2023-02-25T03:49:40.359Z,6.02
2023-02-25T03:50:40.406Z,6.22
2023-02-25T03:51:40.458Z,6.13
2023-02-25T03:52:40.442Z,6.12
2023-02-25T03:53:40.424Z,6.09
2023-02-25T03:54:40.465Z,6.38
2023-02-25T03:55:40.453Z,6.49
2023-02-25T03:56:40.446Z,6.59
2023-02-25T03:57:40.474Z,6.41
2023-02-25T03:58:40.461Z,6.52
2023-02-25T03:59:40.472Z,6.39
2023-02-25T04:00:41.392Z,6.22
2023-02-25T04:01:40.580Z,6.41
2023-02-25T04:02:40.660Z,6.32
2023-02-25T04:03:40.641Z,6.09
2023-02-25T04:04:40.730Z,6.13
2023-02-25T04:05:40.709Z,6.19
2023-02-25T04:06:40.712Z,6.19
2023-02-25T04:07:40.728Z,6.20
2023-02-25T04:08:40.747Z,6.12
2023-02-25T04:09:40.779Z,6.28
2023-02-25T04:10:40.781Z,6.28
2023-02-25T04:11:40.812Z,6.39
2023-02-25T04:12:40.841Z,6.34
2023-02-25T04:13:40.931Z,6.26
2023-02-25T04:14:40.921Z,6.35
2023-02-25T04:15:40.995Z,6.34
2023-02-25T04:16:41.032Z,6.31
2023-02-25T04:17:41.073Z,6.20
2023-02-25T04:18:41.106Z,6.32
2023-02-25T04:19:41.103Z,6.36
2023-02-25T04:20:41.204Z,6.53
2023-02-25T04:21:41.220Z,6.49
2023-02-25T04:22:41.239Z,6.62
2023-02-25T04:23:41.320Z,6.56
2023-02-25T04:24:41.326Z,6.49
2023-02-25T04:25:41.352Z,6.43
2023-02-25T04:26:41.345Z,6.35
2023-02-25T04:27:41.404Z,6.41
2023-02-25T04:28:41.456Z,6.39
2023-02-25T04:29:41.512Z,6.49
2023-02-25T04:30:41.621Z,6.31
2023-02-25T04:31:41.692Z,6.35
2023-02-25T04:32:41.611Z,6.34
2023-02-25T04:33:41.588Z,6.44
2023-02-25T04:34:41.579Z,6.67
2023-02-25T04:35:41.606Z,6.56
2023-02-25T04:36:41.661Z,6.29
2023-02-25T04:37:41.646Z,6.31
2023-02-25T04:38:41.687Z,6.22
2023-02-25T04:39:41.715Z,5.97
2023-02-25T04:40:41.787Z,5.95
2023-02-25T04:41:41.837Z,6.09
2023-02-25T04:42:41.901Z,5.94
2023-02-25T04:43:41.938Z,6.17
2023-02-25T04:44:41.997Z,6.25
2023-02-25T04:45:42.018Z,6.43
2023-02-25T04:46:42.088Z,6.47
2023-02-25T04:47:42.063Z,6.32
2023-02-25T04:48:42.087Z,6.28
2023-02-25T04:49:42.089Z,6.29
2023-02-25T04:50:42.143Z,6.16
2023-02-25T04:51:42.219Z,6.10
2023-02-25T04:52:42.211Z,6.12
2023-02-25T04:53:42.262Z,6.20
2023-02-25T04:54:42.279Z,6.16
2023-02-25T04:55:42.292Z,6.07
2023-02-25T04:56:42.331Z,5.91
2023-02-25T04:57:42.572Z,5.90
2023-02-25T04:58:42.462Z,6.01
2023-02-25T04:59:42.515Z,6.19
2023-02-25T05:00:42.551Z,6.32
2023-02-25T05:01:42.589Z,6.47
2023-02-25T05:02:42.545Z,6.64
2023-02-25T05:03:42.588Z,6.47
2023-02-25T05:04:42.669Z,6.31
2023-02-25T05:05:42.684Z,6.34
2023-02-25T05:06:42.653Z,6.02
2023-02-25T05:07:42.703Z,5.94
2023-02-25T05:08:42.738Z,6.09
2023-02-25T05:09:42.758Z,6.01
2023-02-25T05:10:42.747Z,5.92
2023-02-25T05:11:42.787Z,6.09
2023-02-25T05:12:42.794Z,6.34
2023-02-25T05:13:42.775Z,6.17
2023-02-25T05:14:42.805Z,6.34
2023-02-25T05:15:42.808Z,6.39
2023-02-25T05:16:42.913Z,6.49
2023-02-25T05:17:42.861Z,6.19
2023-02-25T05:18:42.857Z,6.10
2023-02-25T05:19:42.868Z,6.16
2023-02-25T05:20:42.907Z,6.05
2023-02-25T05:21:42.908Z,6.19
2023-02-25T05:22:42.945Z,6.29
2023-02-25T05:23:42.960Z,6.34
2023-02-25T05:24:42.999Z,6.16
2023-02-25T05:25:43.063Z,6.22
2023-02-25T05:26:43.109Z,6.16
2023-02-25T05:27:43.139Z,6.10
2023-02-25T05:28:43.160Z,6.17
2023-02-25T05:29:43.216Z,6.15
2023-02-25T05:30:43.308Z,6.19
2023-02-25T05:31:43.395Z,6.36
2023-02-25T05:32:43.370Z,6.53
2023-02-25T05:33:43.271Z,6.47
2023-02-25T05:34:43.282Z,6.46
2023-02-25T05:35:43.264Z,6.43
2023-02-25T05:36:43.270Z,6.32
2023-02-25T05:37:43.272Z,6.36
2023-02-25T05:38:43.252Z,6.34
2023-02-25T05:39:43.313Z,6.19
2023-02-25T05:40:43.314Z,6.38
2023-02-25T05:41:43.306Z,6.59
2023-02-25T05:42:43.302Z,6.52
2023-02-25T05:43:43.291Z,6.70
2023-02-25T05:44:43.282Z,6.71
2023-02-25T05:45:43.292Z,6.78
2023-02-25T05:46:43.339Z,6.82
2023-02-25T05:47:43.343Z,6.80
2023-02-25T05:48:43.342Z,6.65
2023-02-25T05:49:43.350Z,6.78
2023-02-25T05:50:43.944Z,6.70
2023-02-25T05:51:43.366Z,6.64
2023-02-25T05:52:43.373Z,6.78
2023-02-25T05:53:43.365Z,6.70
2023-02-25T05:54:43.387Z,6.65
2023-02-25T05:55:43.393Z,6.75
2023-02-25T05:56:43.395Z,6.47
2023-02-25T05:57:43.442Z,6.38
2023-02-25T05:58:43.464Z,6.28
2023-02-25T05:59:43.474Z,6.35
2023-02-25T06:00:43.464Z,6.29
2023-02-25T06:01:43.518Z,6.35
2023-02-25T06:02:43.471Z,6.34
2023-02-25T06:03:43.488Z,6.17
2023-02-25T06:04:43.502Z,6.29
2023-02-25T06:05:43.524Z,6.50
2023-02-25T06:06:43.562Z,6.44
2023-02-25T06:07:43.544Z,6.17
2023-02-25T06:08:43.534Z,6.12
2023-02-25T06:09:43.593Z,6.29
2023-02-25T06:10:43.651Z,6.38
2023-02-25T06:11:43.685Z,6.49
2023-02-25T06:12:46.432Z,6.65
2023-02-25T06:13:43.748Z,6.65
2023-02-25T06:14:43.813Z,6.32
2023-02-25T06:15:43.822Z,6.36
2023-02-25T06:16:43.850Z,6.46
2023-02-25T06:17:43.896Z,6.47
2023-02-25T06:18:43.893Z,6.13
2023-02-25T06:19:43.907Z,6.19
2023-02-25T06:20:43.982Z,6.39
2023-02-25T06:21:43.994Z,6.41
2023-02-25T06:22:44.041Z,6.46
2023-02-25T06:23:44.076Z,6.62
2023-02-25T06:24:44.130Z,6.59
2023-02-25T06:25:44.170Z,6.65
2023-02-25T06:26:44.246Z,6.68
2023-02-25T06:27:44.220Z,6.57
2023-02-25T06:28:44.295Z,6.13
2023-02-25T06:29:44.315Z,6.07
2023-02-25T06:30:44.425Z,6.29
2023-02-25T06:31:44.482Z,6.53
2023-02-25T06:32:44.381Z,6.65
2023-02-25T06:33:44.369Z,6.39
2023-02-25T06:34:44.397Z,6.50
2023-02-25T06:35:44.445Z,6.54
2023-02-25T06:36:44.429Z,6.60
2023-02-25T06:37:44.497Z,6.32
2023-02-25T06:38:44.550Z,6.22
2023-02-25T06:39:44.621Z,6.34
2023-02-25T06:40:44.678Z,6.25
2023-02-25T06:41:44.673Z,6.41
2023-02-25T06:42:44.689Z,6.46
2023-02-25T06:43:44.767Z,6.49
2023-02-25T06:44:44.829Z,6.53
2023-02-25T06:45:44.926Z,6.52
2023-02-25T06:46:44.897Z,6.47
2023-02-25T06:47:44.925Z,6.70
2023-02-25T06:48:44.953Z,6.68
2023-02-25T06:49:44.971Z,6.72
2023-02-25T06:50:44.991Z,6.82
2023-02-25T06:51:45.071Z,6.82
2023-02-25T06:52:45.111Z,6.92
2023-02-25T06:53:45.093Z,7.00
2023-02-25T06:54:45.141Z,6.90
2023-02-25T06:55:45.180Z,7.05
2023-02-25T06:56:45.224Z,6.92
2023-02-25T06:57:45.233Z,6.80
2023-02-25T06:58:45.253Z,6.89
2023-02-25T06:59:45.283Z,6.74
2023-02-25T07:00:45.328Z,6.64
2023-02-25T07:01:45.385Z,6.39
2023-02-25T07:02:45.420Z,6.35
2023-02-25T07:03:45.495Z,6.44
2023-02-25T07:04:45.537Z,6.25
2023-02-25T07:05:45.522Z,6.39
2023-02-25T07:06:45.594Z,6.31
2023-02-25T07:07:45.573Z,6.49
2023-02-25T07:08:45.612Z,6.25
2023-02-25T07:09:45.657Z,6.31
2023-02-25T07:10:45.824Z,6.22
2023-02-25T07:11:45.725Z,6.34
2023-02-25T07:12:45.822Z,6.50
2023-02-25T07:13:45.733Z,6.64
2023-02-25T07:14:45.735Z,6.82
2023-02-25T07:15:45.790Z,6.68
2023-02-25T07:16:45.754Z,6.53
2023-02-25T07:17:45.783Z,6.46
2023-02-25T07:18:45.861Z,6.38
2023-02-25T07:19:45.924Z,6.17
2023-02-25T07:20:45.934Z,6.16
2023-02-25T07:21:45.972Z,6.32
2023-02-25T07:22:45.968Z,6.19
2023-02-25T07:23:46.051Z,6.25
2023-02-25T07:24:46.133Z,6.34
2023-02-25T07:25:46.136Z,6.41
2023-02-25T07:26:46.154Z,6.43
2023-02-25T07:27:46.160Z,6.38
2023-02-25T07:28:46.157Z,6.41
2023-02-25T07:29:46.226Z,6.56
2023-02-25T07:30:48.008Z,6.57
2023-02-25T07:31:47.446Z,6.46
2023-02-25T07:32:47.310Z,6.62
2023-02-25T07:33:46.398Z,6.92
2023-02-25T07:34:46.414Z,6.93
2023-02-25T07:35:46.511Z,6.75
2023-02-25T07:36:46.527Z,6.80
2023-02-25T07:37:46.567Z,6.72
2023-02-25T07:38:46.650Z,6.87
2023-02-25T07:39:47.787Z,6.60
2023-02-25T07:40:46.681Z,6.60
2023-02-25T07:41:46.711Z,6.65
2023-02-25T07:42:46.760Z,6.77
2023-02-25T07:43:46.803Z,6.62
2023-02-25T07:44:46.793Z,6.70
2023-02-25T07:45:46.870Z,6.93
2023-02-25T07:46:46.881Z,6.70
2023-02-25T07:47:46.896Z,6.39
2023-02-25T07:48:46.924Z,6.38
2023-02-25T07:49:46.978Z,6.39
2023-02-25T07:50:47.017Z,6.57
2023-02-25T07:51:47.048Z,6.96
2023-02-25T07:52:47.113Z,6.90
2023-02-25T07:53:47.136Z,6.68
2023-02-25T07:54:47.135Z,6.72
2023-02-25T07:55:47.136Z,6.67
2023-02-25T07:56:47.131Z,6.53
2023-02-25T07:57:47.186Z,6.59
2023-02-25T07:58:47.144Z,6.92
2023-02-25T07:59:47.140Z,7.11
2023-02-25T08:00:47.162Z,7.18
2023-02-25T08:01:47.209Z,7.31
2023-02-25T08:02:47.331Z,7.11
2023-02-25T08:03:47.289Z,6.95
2023-02-25T08:04:47.347Z,7.04
2023-02-25T08:05:47.345Z,6.96
2023-02-25T08:06:48.404Z,6.82
2023-02-25T08:07:47.461Z,6.62
2023-02-25T08:08:47.520Z,6.89
2023-02-25T08:09:47.539Z,6.85
2023-02-25T08:10:47.550Z,6.72
2023-02-25T08:11:47.591Z,6.86
2023-02-25T08:12:47.597Z,6.90
2023-02-25T08:13:47.642Z,6.97
2023-02-25T08:14:47.697Z,7.10
2023-02-25T08:15:47.767Z,7.10
2023-02-25T08:16:47.700Z,7.08
2023-02-25T08:17:47.721Z,7.29
2023-02-25T08:18:47.757Z,7.41
2023-02-25T08:19:47.818Z,7.15
2023-02-25T08:20:47.803Z,7.01
2023-02-25T08:21:47.784Z,7.04
2023-02-25T08:22:47.782Z,6.83
2023-02-25T08:23:47.813Z,6.75
2023-02-25T08:24:47.833Z,6.92
2023-02-25T08:25:47.886Z,6.75
2023-02-25T08:26:47.947Z,6.85
2023-02-25T08:27:47.973Z,6.96
2023-02-25T08:28:48.034Z,7.03
2023-02-25T08:29:48.096Z,7.03
2023-02-25T08:30:48.149Z,6.75
2023-02-25T08:31:48.373Z,7.04
2023-02-25T08:32:48.319Z,7.13
2023-02-25T08:33:48.196Z,7.07
2023-02-25T08:34:48.904Z,7.01
2023-02-25T08:35:48.267Z,6.90
2023-02-25T08:36:48.268Z,6.78
2023-02-25T08:37:48.326Z,6.83
2023-02-25T08:38:48.307Z,6.86
2023-02-25T08:39:48.317Z,7.11
2023-02-25T08:40:48.338Z,7.29
2023-02-25T08:41:48.387Z,7.66
2023-02-25T08:42:48.397Z,8.31
2023-02-25T08:43:48.458Z,9.13
2023-02-25T08:44:48.529Z,9.62
2023-02-25T08:45:48.501Z,9.24
2023-02-25T08:46:48.525Z,8.74
2023-02-25T08:47:48.536Z,8.64
2023-02-25T08:48:48.619Z,8.44
2023-02-25T08:49:48.621Z,8.16
2023-02-25T08:50:48.637Z,7.48
2023-02-25T08:51:48.696Z,7.19
2023-02-25T08:52:48.768Z,7.19
2023-02-25T08:53:48.763Z,7.08
2023-02-25T08:54:48.808Z,7.00
2023-02-25T08:55:48.805Z,7.04
2023-02-25T08:56:48.837Z,7.10
2023-02-25T08:57:48.854Z,6.93
2023-02-25T08:58:48.917Z,7.08
2023-02-25T08:59:48.993Z,6.80
2023-02-25T09:00:49.003Z,6.96
2023-02-25T09:01:49.015Z,6.26
2023-02-25T09:02:49.137Z,5.72
2023-02-25T09:03:49.097Z,5.56
2023-02-25T09:04:49.259Z,5.38
2023-02-25T09:05:49.176Z,4.74
2023-02-25T09:06:49.286Z,4.30
2023-02-25T09:07:49.274Z,4.20
2023-02-25T09:08:49.261Z,4.21
2023-02-25T09:09:49.243Z,4.22
2023-02-25T09:10:50.863Z,4.36
2023-02-25T09:11:49.391Z,4.42
2023-02-25T09:12:49.406Z,4.49
2023-02-25T09:13:49.493Z,4.64
2023-02-25T09:14:49.438Z,4.87
2023-02-25T09:15:49.466Z,4.94
2023-02-25T09:16:49.603Z,4.83
2023-02-25T09:17:49.478Z,4.32
2023-02-25T09:18:49.491Z,4.87
2023-02-25T09:19:49.518Z,5.64
2023-02-25T09:20:49.492Z,6.68
2023-02-25T09:21:49.530Z,7.51
2023-02-25T09:22:49.599Z,7.72
2023-02-25T09:23:49.709Z,8.06
2023-02-25T09:24:49.731Z,8.93
2023-02-25T09:25:49.731Z,9.39
2023-02-25T09:26:49.786Z,9.36
2023-02-25T09:27:49.866Z,9.81
2023-02-25T09:28:49.897Z,9.58
2023-02-25T09:29:49.893Z,9.47
2023-02-25T09:30:49.927Z,9.33
2023-02-25T09:31:50.273Z,9.42
2023-02-25T09:32:50.209Z,9.49
2023-02-25T09:33:50.092Z,10.02
2023-02-25T09:34:50.152Z,10.25
2023-02-25T09:35:50.175Z,10.58
2023-02-25T09:36:50.235Z,11.16
2023-02-25T09:37:50.244Z,11.38
2023-02-25T09:38:50.235Z,11.55
2023-02-25T09:39:50.241Z,11.16
2023-02-25T09:40:50.318Z,11.34
2023-02-25T09:41:50.383Z,11.49
2023-02-25T09:42:50.435Z,12.29
2023-02-25T09:43:50.410Z,10.95
2023-02-25T09:44:50.411Z,9.58
2023-02-25T09:45:50.484Z,8.09
2023-02-25T09:46:50.512Z,7.80
2023-02-25T09:47:50.539Z,7.18
2023-02-25T09:48:50.500Z,6.49
2023-02-25T09:49:50.589Z,5.80
2023-02-25T09:50:50.560Z,5.29
2023-02-25T09:51:50.662Z,5.41
2023-02-25T09:52:50.651Z,5.44
2023-02-25T09:53:50.675Z,5.65
2023-02-25T09:54:50.725Z,5.59
2023-02-25T09:55:50.717Z,5.34
2023-02-25T09:56:50.751Z,5.41
2023-02-25T09:57:50.775Z,5.31
2023-02-25T09:58:50.799Z,5.55
2023-02-25T09:59:51.197Z,5.61
2023-02-25T10:00:50.815Z,5.43
2023-02-25T10:01:50.982Z,5.29
2023-02-25T10:02:51.061Z,5.22
2023-02-25T10:03:50.979Z,5.08
2023-02-25T10:04:51.067Z,4.76
2023-02-25T10:05:51.108Z,4.79
2023-02-25T10:06:51.160Z,4.74
2023-02-25T10:07:51.181Z,5.00
2023-02-25T10:08:51.192Z,4.78
2023-02-25T10:09:51.212Z,4.76
2023-02-25T10:10:51.229Z,4.75
2023-02-25T10:11:51.240Z,4.87
2023-02-25T10:12:51.230Z,5.13
2023-02-25T10:13:51.220Z,5.01
2023-02-25T10:14:51.282Z,5.31
2023-02-25T10:15:52.962Z,5.41
2023-02-25T10:16:51.421Z,5.58
2023-02-25T10:17:51.321Z,5.74
2023-02-25T10:18:51.340Z,5.69
2023-02-25T10:19:51.364Z,5.84
2023-02-25T10:20:51.407Z,5.79
2023-02-25T10:21:51.461Z,5.62
2023-02-25T10:22:51.514Z,5.47
2023-02-25T10:23:51.584Z,5.56
2023-02-25T10:24:51.558Z,5.72
2023-02-25T10:25:51.566Z,5.69
2023-02-25T10:26:51.560Z,5.72
2023-02-25T10:27:51.572Z,5.43
2023-02-25T10:28:51.573Z,5.51
2023-02-25T10:29:51.585Z,5.67
2023-02-25T10:30:51.657Z,5.83
2023-02-25T10:31:51.891Z,5.79
2023-02-25T10:32:51.707Z,5.69
2023-02-25T10:33:51.672Z,5.81
2023-02-25T10:34:51.694Z,6.34
2023-02-25T10:35:51.724Z,6.50
2023-02-25T10:36:51.767Z,6.05
2023-02-25T10:37:51.833Z,6.02
2023-02-25T10:38:51.844Z,6.05
2023-02-25T10:39:51.932Z,6.31
2023-02-25T10:40:51.963Z,7.14
2023-02-25T10:41:52.006Z,7.47
2023-02-25T10:42:52.017Z,7.48
2023-02-25T10:43:52.084Z,7.26
2023-02-25T10:44:52.107Z,7.36
2023-02-25T10:45:52.173Z,7.67
2023-02-25T10:46:52.189Z,7.88
2023-02-25T10:47:52.258Z,7.75
2023-02-25T10:48:52.251Z,7.64
2023-02-25T10:49:52.223Z,7.74
2023-02-25T10:50:52.853Z,7.96
2023-02-25T10:51:53.083Z,7.58
2023-02-25T10:52:52.298Z,7.85
2023-02-25T10:53:52.475Z,7.83
2023-02-25T10:54:52.327Z,7.59
2023-02-25T10:55:52.344Z,7.43
2023-02-25T10:56:52.388Z,7.41
2023-02-25T10:57:52.441Z,7.48
2023-02-25T10:58:52.531Z,7.08
2023-02-25T10:59:52.509Z,6.74
2023-02-25T11:00:52.544Z,6.87
2023-02-25T11:01:52.595Z,6.90
2023-02-25T11:02:52.559Z,6.87
2023-02-25T11:03:52.543Z,6.93
2023-02-25T11:04:52.606Z,6.95
2023-02-25T11:05:52.582Z,7.08
2023-02-25T11:06:52.582Z,6.90
2023-02-25T11:07:52.562Z,6.86
2023-02-25T11:08:52.633Z,6.85
2023-02-25T11:09:52.629Z,6.82
2023-02-25T11:10:52.671Z,6.92
2023-02-25T11:11:52.638Z,6.74
2023-02-25T11:12:52.718Z,6.86
2023-02-25T11:13:52.703Z,7.01
2023-02-25T11:14:52.713Z,6.89
2023-02-25T11:15:52.812Z,7.01
2023-02-25T11:16:52.784Z,7.03
2023-02-25T11:17:52.793Z,7.77
2023-02-25T11:18:52.785Z,8.66
2023-02-25T11:19:52.820Z,9.19
2023-02-25T11:20:52.894Z,8.64
2023-02-25T11:21:52.968Z,8.68
2023-02-25T11:22:52.968Z,8.53
2023-02-25T11:23:52.966Z,8.03
2023-02-25T11:24:53.000Z,7.90
2023-02-25T11:25:53.030Z,7.48
2023-02-25T11:26:53.047Z,7.29
2023-02-25T11:27:53.020Z,7.33
2023-02-25T11:28:53.029Z,7.36
2023-02-25T11:29:53.021Z,7.36
2023-02-25T11:30:53.194Z,7.47
2023-02-25T11:31:53.332Z,7.51
2023-02-25T11:32:53.207Z,7.61
2023-02-25T11:33:53.199Z,7.81
2023-02-25T11:34:53.122Z,7.47
2023-02-25T11:35:53.170Z,6.87
2023-02-25T11:36:53.239Z,6.87
2023-02-25T11:37:53.269Z,7.14
2023-02-25T11:38:53.269Z,7.25
2023-02-25T11:39:53.311Z,7.05
2023-02-25T11:40:53.323Z,6.77
2023-02-25T11:41:53.375Z,6.90
2023-02-25T11:42:53.427Z,6.82
2023-02-25T11:43:53.469Z,7.10
2023-02-25T11:44:53.515Z,7.23
2023-02-25T11:45:53.585Z,6.78
2023-02-25T11:46:53.598Z,6.68
2023-02-25T11:47:53.638Z,6.89
2023-02-25T11:48:53.702Z,6.90
2023-02-25T11:49:53.658Z,7.08
2023-02-25T11:50:53.679Z,7.98
2023-02-25T11:51:53.679Z,8.63
2023-02-25T11:52:53.688Z,9.02
2023-02-25T11:53:53.844Z,8.86
2023-02-25T11:56:19.753Z,8.28
2023-02-25T11:57:19.775Z,7.84
2023-02-25T11:58:19.800Z,7.96
2023-02-25T11:59:19.820Z,7.75
2023-02-25T12:00:19.826Z,7.25
2023-02-25T12:01:19.876Z,7.43
2023-02-25T12:02:19.837Z,7.31
2023-02-25T12:03:19.862Z,7.56
2023-02-25T12:05:45.859Z,6.74
2023-02-25T12:06:45.955Z,6.46
2023-02-25T12:08:00.014Z,6.52
2023-02-25T12:08:45.947Z,6.56
2023-02-25T12:09:45.995Z,6.54
2023-02-25T12:10:46.037Z,6.56
2023-02-25T12:11:46.067Z,6.83
2023-02-25T12:12:46.129Z,7.23
2023-02-25T12:13:46.148Z,7.22
2023-02-25T12:14:46.150Z,7.03
2023-02-25T12:15:46.100Z,7.15
2023-02-25T12:16:46.107Z,7.31
2023-02-25T12:17:46.157Z,7.72
2023-02-25T12:18:46.206Z,7.43
2023-02-25T12:19:46.231Z,7.22
2023-02-25T12:20:46.305Z,7.05
2023-02-25T12:21:46.360Z,7.13
2023-02-25T12:22:46.339Z,7.33
2023-02-25T12:23:46.410Z,7.33
2023-02-25T12:24:46.452Z,7.47
2023-02-25T12:25:46.510Z,7.55
2023-02-25T12:26:46.513Z,7.61
2023-02-25T12:27:46.502Z,7.14
2023-02-25T12:28:47.728Z,7.08
2023-02-25T12:29:46.532Z,7.15
2023-02-25T12:30:46.567Z,7.11
2023-02-25T12:31:46.650Z,7.31
2023-02-25T12:32:46.583Z,7.93
2023-02-25T12:33:46.584Z,8.28
2023-02-25T12:34:46.612Z,8.59
2023-02-25T12:35:46.642Z,8.50
2023-02-25T12:36:46.657Z,8.28
2023-02-25T12:37:46.733Z,7.62
2023-02-25T12:38:46.733Z,7.40
2023-02-25T12:39:46.771Z,7.01
2023-02-25T12:40:46.830Z,6.83
2023-02-25T12:41:46.868Z,7.01
2023-02-25T12:42:46.893Z,6.70
2023-02-25T12:43:46.896Z,6.96
2023-02-25T12:44:46.953Z,7.25
2023-02-25T12:45:46.986Z,7.19
2023-02-25T12:46:47.017Z,7.04
2023-02-25T12:47:47.110Z,7.15
2023-02-25T12:48:47.086Z,7.14
2023-02-25T12:49:47.136Z,7.26
2023-02-25T12:50:47.165Z,7.33
2023-02-25T12:51:47.224Z,7.26
2023-02-25T12:52:47.306Z,6.75
2023-02-25T12:53:47.315Z,6.82
2023-02-25T12:54:47.358Z,6.85
2023-02-25T12:55:47.396Z,7.11
2023-02-25T12:56:47.432Z,7.19
2023-02-25T12:57:47.490Z,7.21
2023-02-25T12:58:47.491Z,6.96
2023-02-25T12:59:47.498Z,6.78
2023-02-25T13:00:47.603Z,6.72
2023-02-25T13:01:47.549Z,6.72
2023-02-25T13:02:47.619Z,6.77
2023-02-25T13:03:47.677Z,6.70
2023-02-25T13:04:47.631Z,6.93
2023-02-25T13:05:47.651Z,7.19
2023-02-25T13:06:47.702Z,7.07
2023-02-25T13:07:47.740Z,6.68
2023-02-25T13:08:47.730Z,6.93
2023-02-25T13:09:47.806Z,6.90
2023-02-25T13:10:47.802Z,7.22
2023-02-25T13:12:10.626Z,7.31
2023-02-25T13:12:47.911Z,7.05
2023-02-25T13:13:47.953Z,6.77
2023-02-25T13:14:47.925Z,6.44
2023-02-25T13:15:47.912Z,6.92
2023-02-25T13:16:48.048Z,7.41
2023-02-25T13:17:48.016Z,7.21
2023-02-25T13:18:48.022Z,6.89
2023-02-25T13:19:48.089Z,7.07
2023-02-25T13:20:48.074Z,7.00
2023-02-25T13:21:48.129Z,7.05
2023-02-25T13:22:48.163Z,6.87
2023-02-25T13:23:48.281Z,6.93
2023-02-25T13:24:48.275Z,6.77
2023-02-25T13:25:48.344Z,6.77
2023-02-25T13:26:48.407Z,6.71
2023-02-25T13:27:48.474Z,6.53